sensor_id;sensor_type;location;lat;lon;timestamp;P1;durP1;ratioP1;P2;durP2;ratioP2
43048;SDS011;28673;44.412;11.918;2023-03-23T00:01:59;71.25;;;38.05;;
43048;SDS011;28673;44.412;11.918;2023-03-23T00:04:25;56.20;;;36.20;;
43048;SDS011;28673;44.412;11.918;2023-03-23T00:06:54;55.78;;;36.50;;
43048;SDS011;28673;44.412;11.918;2023-03-23T00:09:20;54.85;;;37.67;;
43048;SDS011;28673;44.412;11.918;2023-03-23T00:11:49;52.88;;;35.13;;
43048;SDS011;28673;44.412;11.918;2023-03-23T00:14:19;49.65;;;34.03;;
43048;SDS011;28673;44.412;11.918;2023-03-23T00:16:47;55.88;;;35.25;;
43048;SDS011;28673;44.412;11.918;2023-03-23T00:19:14;50.10;;;34.45;;
43048;SDS011;28673;44.412;11.918;2023-03-23T00:21:41;53.80;;;36.00;;
43048;SDS011;28673;44.412;11.918;2023-03-23T00:24:12;52.72;;;34.92;;
43048;SDS011;28673;44.412;11.918;2023-03-23T00:26:43;50.50;;;34.45;;
43048;SDS011;28673;44.412;11.918;2023-03-23T00:31:44;54.28;;;35.00;;
43048;SDS011;28673;44.412;11.918;2023-03-23T00:34:20;52.55;;;35.17;;
43048;SDS011;28673;44.412;11.918;2023-03-23T00:36:53;56.08;;;36.90;;
43048;SDS011;28673;44.412;11.918;2023-03-23T00:39:22;52.17;;;35.58;;
43048;SDS011;28673;44.412;11.918;2023-03-23T00:41:58;56.28;;;36.28;;
43048;SDS011;28673;44.412;11.918;2023-03-23T00:44:30;55.85;;;36.40;;
43048;SDS011;28673;44.412;11.918;2023-03-23T00:46:57;55.03;;;35.47;;
43048;SDS011;28673;44.412;11.918;2023-03-23T00:49:24;58.38;;;33.97;;
43048;SDS011;28673;44.412;11.918;2023-03-23T00:51:55;50.78;;;33.65;;
43048;SDS011;28673;44.412;11.918;2023-03-23T00:54:23;54.55;;;33.95;;
43048;SDS011;28673;44.412;11.918;2023-03-23T00:56:50;53.53;;;35.15;;
43048;SDS011;28673;44.412;11.918;2023-03-23T00:59:16;55.75;;;35.20;;
43048;SDS011;28673;44.412;11.918;2023-03-23T01:01:44;58.33;;;36.45;;
43048;SDS011;28673;44.412;11.918;2023-03-23T01:04:12;57.08;;;34.92;;
43048;SDS011;28673;44.412;11.918;2023-03-23T01:06:40;56.90;;;37.28;;
43048;SDS011;28673;44.412;11.918;2023-03-23T01:09:12;53.42;;;33.50;;
43048;SDS011;28673;44.412;11.918;2023-03-23T01:11:40;52.25;;;34.30;;
43048;SDS011;28673;44.412;11.918;2023-03-23T01:14:07;53.38;;;34.40;;
43048;SDS011;28673;44.412;11.918;2023-03-23T01:16:33;49.58;;;33.97;;
43048;SDS011;28673;44.412;11.918;2023-03-23T01:18:59;44.45;;;30.55;;
43048;SDS011;28673;44.412;11.918;2023-03-23T01:21:25;54.67;;;32.25;;
43048;SDS011;28673;44.412;11.918;2023-03-23T01:23:55;50.13;;;32.60;;
43048;SDS011;28673;44.412;11.918;2023-03-23T01:26:22;43.92;;;29.80;;
43048;SDS011;28673;44.412;11.918;2023-03-23T01:28:50;48.78;;;30.08;;
43048;SDS011;28673;44.412;11.918;2023-03-23T01:31:20;43.63;;;29.23;;
43048;SDS011;28673;44.412;11.918;2023-03-23T01:33:48;55.45;;;32.28;;
43048;SDS011;28673;44.412;11.918;2023-03-23T01:36:18;51.83;;;32.97;;
43048;SDS011;28673;44.412;11.918;2023-03-23T01:38:46;46.88;;;33.00;;
43048;SDS011;28673;44.412;11.918;2023-03-23T01:41:14;49.20;;;31.35;;
43048;SDS011;28673;44.412;11.918;2023-03-23T01:43:55;52.72;;;32.03;;
43048;SDS011;28673;44.412;11.918;2023-03-23T01:46:22;51.78;;;32.85;;
43048;SDS011;28673;44.412;11.918;2023-03-23T01:48:50;46.47;;;30.98;;
43048;SDS011;28673;44.412;11.918;2023-03-23T01:51:17;48.38;;;31.80;;
43048;SDS011;28673;44.412;11.918;2023-03-23T01:53:51;50.30;;;30.92;;
43048;SDS011;28673;44.412;11.918;2023-03-23T01:56:25;46.38;;;31.42;;
43048;SDS011;28673;44.412;11.918;2023-03-23T01:58:59;58.95;;;32.95;;
43048;SDS011;28673;44.412;11.918;2023-03-23T02:01:28;50.30;;;34.35;;
43048;SDS011;28673;44.412;11.918;2023-03-23T02:03:54;48.80;;;32.35;;
43048;SDS011;28673;44.412;11.918;2023-03-23T02:06:22;51.35;;;31.02;;
43048;SDS011;28673;44.412;11.918;2023-03-23T02:09:06;45.15;;;30.90;;
43048;SDS011;28673;44.412;11.918;2023-03-23T02:11:33;48.90;;;32.00;;
43048;SDS011;28673;44.412;11.918;2023-03-23T02:14:00;56.42;;;32.42;;
43048;SDS011;28673;44.412;11.918;2023-03-23T02:16:39;45.85;;;31.05;;
43048;SDS011;28673;44.412;11.918;2023-03-23T02:30:36;48.40;;;31.80;;
43048;SDS011;28673;44.412;11.918;2023-03-23T02:36:41;66.10;;;33.50;;
43048;SDS011;28673;44.412;11.918;2023-03-23T02:38:52;46.80;;;28.98;;
43048;SDS011;28673;44.412;11.918;2023-03-23T02:41:38;45.83;;;30.20;;
43048;SDS011;28673;44.412;11.918;2023-03-23T02:44:09;40.78;;;27.20;;
43048;SDS011;28673;44.412;11.918;2023-03-23T02:46:37;47.80;;;27.67;;
43048;SDS011;28673;44.412;11.918;2023-03-23T02:49:06;43.05;;;26.98;;
43048;SDS011;28673;44.412;11.918;2023-03-23T02:51:35;43.17;;;26.98;;
43048;SDS011;28673;44.412;11.918;2023-03-23T02:54:05;42.00;;;26.88;;
43048;SDS011;28673;44.412;11.918;2023-03-23T02:56:33;41.15;;;26.20;;
43048;SDS011;28673;44.412;11.918;2023-03-23T02:59:03;37.20;;;23.55;;
43048;SDS011;28673;44.412;11.918;2023-03-23T03:03:59;39.22;;;25.50;;
43048;SDS011;28673;44.412;11.918;2023-03-23T03:06:37;37.22;;;25.05;;
43048;SDS011;28673;44.412;11.918;2023-03-23T03:09:24;42.65;;;28.40;;
43048;SDS011;28673;44.412;11.918;2023-03-23T03:12:06;44.15;;;26.52;;
43048;SDS011;28673;44.412;11.918;2023-03-23T03:14:39;43.13;;;25.90;;
43048;SDS011;28673;44.412;11.918;2023-03-23T03:17:17;40.70;;;27.75;;
43048;SDS011;28673;44.412;11.918;2023-03-23T03:19:49;40.00;;;25.42;;
43048;SDS011;28673;44.412;11.918;2023-03-23T03:22:20;37.30;;;25.77;;
43048;SDS011;28673;44.412;11.918;2023-03-23T03:24:47;37.58;;;25.02;;
43048;SDS011;28673;44.412;11.918;2023-03-23T03:27:15;33.60;;;25.02;;
43048;SDS011;28673;44.412;11.918;2023-03-23T03:29:48;38.80;;;25.88;;
43048;SDS011;28673;44.412;11.918;2023-03-23T03:32:20;45.20;;;26.20;;
43048;SDS011;28673;44.412;11.918;2023-03-23T03:34:50;38.53;;;25.92;;
43048;SDS011;28673;44.412;11.918;2023-03-23T03:37:18;40.28;;;23.48;;
43048;SDS011;28673;44.412;11.918;2023-03-23T03:39:47;40.22;;;23.95;;
43048;SDS011;28673;44.412;11.918;2023-03-23T03:42:13;30.25;;;21.45;;
43048;SDS011;28673;44.412;11.918;2023-03-23T03:44:39;34.50;;;23.80;;
43048;SDS011;28673;44.412;11.918;2023-03-23T03:47:05;35.10;;;23.77;;
43048;SDS011;28673;44.412;11.918;2023-03-23T03:49:31;40.70;;;23.73;;
43048;SDS011;28673;44.412;11.918;2023-03-23T03:51:57;36.40;;;21.75;;
43048;SDS011;28673;44.412;11.918;2023-03-23T03:54:33;32.97;;;20.60;;
43048;SDS011;28673;44.412;11.918;2023-03-23T03:56:59;31.42;;;20.88;;
43048;SDS011;28673;44.412;11.918;2023-03-23T03:59:51;31.13;;;19.25;;
43048;SDS011;28673;44.412;11.918;2023-03-23T04:02:36;32.25;;;21.55;;
43048;SDS011;28673;44.412;11.918;2023-03-23T04:05:02;32.10;;;19.85;;
43048;SDS011;28673;44.412;11.918;2023-03-23T04:07:31;27.60;;;18.88;;
43048;SDS011;28673;44.412;11.918;2023-03-23T04:09:57;28.45;;;18.35;;
43048;SDS011;28673;44.412;11.918;2023-03-23T04:12:23;26.45;;;18.58;;
43048;SDS011;28673;44.412;11.918;2023-03-23T04:14:55;32.00;;;18.33;;
43048;SDS011;28673;44.412;11.918;2023-03-23T04:17:29;28.23;;;18.77;;
43048;SDS011;28673;44.412;11.918;2023-03-23T04:19:56;31.08;;;19.67;;
43048;SDS011;28673;44.412;11.918;2023-03-23T04:22:23;27.60;;;19.23;;
43048;SDS011;28673;44.412;11.918;2023-03-23T04:24:58;30.55;;;21.23;;
43048;SDS011;28673;44.412;11.918;2023-03-23T04:27:28;31.90;;;21.33;;
43048;SDS011;28673;44.412;11.918;2023-03-23T04:29:57;28.80;;;19.60;;
43048;SDS011;28673;44.412;11.918;2023-03-23T04:32:42;35.10;;;22.30;;
43048;SDS011;28673;44.412;11.918;2023-03-23T04:35:11;35.83;;;21.05;;
43048;SDS011;28673;44.412;11.918;2023-03-23T04:38:12;34.28;;;22.92;;
43048;SDS011;28673;44.412;11.918;2023-03-23T04:40:42;32.42;;;21.83;;
43048;SDS011;28673;44.412;11.918;2023-03-23T04:43:24;35.72;;;23.27;;
43048;SDS011;28673;44.412;11.918;2023-03-23T04:46:05;37.78;;;24.00;;
43048;SDS011;28673;44.412;11.918;2023-03-23T04:48:34;34.75;;;22.70;;
43048;SDS011;28673;44.412;11.918;2023-03-23T04:51:14;34.97;;;22.25;;
43048;SDS011;28673;44.412;11.918;2023-03-23T04:53:43;34.97;;;22.30;;
43048;SDS011;28673;44.412;11.918;2023-03-23T04:56:09;34.60;;;22.00;;
43048;SDS011;28673;44.412;11.918;2023-03-23T04:58:42;34.05;;;22.08;;
43048;SDS011;28673;44.412;11.918;2023-03-23T05:01:29;31.80;;;20.48;;
43048;SDS011;28673;44.412;11.918;2023-03-23T05:04:09;45.10;;;24.35;;
43048;SDS011;28673;44.412;11.918;2023-03-23T05:06:36;34.25;;;20.90;;
43048;SDS011;28673;44.412;11.918;2023-03-23T05:09:11;33.83;;;22.17;;
43048;SDS011;28673;44.412;11.918;2023-03-23T05:11:38;35.10;;;22.63;;
43048;SDS011;28673;44.412;11.918;2023-03-23T05:14:04;31.42;;;21.48;;
43048;SDS011;28673;44.412;11.918;2023-03-23T05:16:31;38.50;;;22.33;;
43048;SDS011;28673;44.412;11.918;2023-03-23T05:18:57;35.58;;;21.95;;
43048;SDS011;28673;44.412;11.918;2023-03-23T05:21:26;36.00;;;21.60;;
43048;SDS011;28673;44.412;11.918;2023-03-23T05:23:53;35.42;;;23.45;;
43048;SDS011;28673;44.412;11.918;2023-03-23T05:26:20;34.47;;;22.92;;
43048;SDS011;28673;44.412;11.918;2023-03-23T05:28:49;37.85;;;21.58;;
43048;SDS011;28673;44.412;11.918;2023-03-23T05:31:34;34.63;;;21.92;;
43048;SDS011;28673;44.412;11.918;2023-03-23T05:34:00;32.38;;;20.55;;
43048;SDS011;28673;44.412;11.918;2023-03-23T05:36:38;26.35;;;16.85;;
43048;SDS011;28673;44.412;11.918;2023-03-23T05:39:11;23.40;;;15.48;;
43048;SDS011;28673;44.412;11.918;2023-03-23T05:41:56;23.88;;;15.45;;
43048;SDS011;28673;44.412;11.918;2023-03-23T05:44:27;28.10;;;15.82;;
43048;SDS011;28673;44.412;11.918;2023-03-23T05:49:25;22.98;;;15.05;;
43048;SDS011;28673;44.412;11.918;2023-03-23T05:51:52;28.08;;;16.48;;
43048;SDS011;28673;44.412;11.918;2023-03-23T05:54:19;25.73;;;15.27;;
43048;SDS011;28673;44.412;11.918;2023-03-23T05:56:47;24.92;;;16.33;;
43048;SDS011;28673;44.412;11.918;2023-03-23T05:59:38;38.13;;;19.70;;
43048;SDS011;28673;44.412;11.918;2023-03-23T06:02:09;22.35;;;15.80;;
43048;SDS011;28673;44.412;11.918;2023-03-23T06:04:36;25.08;;;16.70;;
43048;SDS011;28673;44.412;11.918;2023-03-23T06:07:15;26.73;;;18.02;;
43048;SDS011;28673;44.412;11.918;2023-03-23T06:09:51;27.67;;;17.58;;
43048;SDS011;28673;44.412;11.918;2023-03-23T06:12:35;34.33;;;23.15;;
43048;SDS011;28673;44.412;11.918;2023-03-23T06:15:11;36.28;;;23.63;;
43048;SDS011;28673;44.412;11.918;2023-03-23T06:18:02;33.78;;;22.33;;
43048;SDS011;28673;44.412;11.918;2023-03-23T06:20:38;29.77;;;19.15;;
43048;SDS011;28673;44.412;11.918;2023-03-23T06:23:19;29.48;;;17.58;;
43048;SDS011;28673;44.412;11.918;2023-03-23T06:25:47;28.48;;;20.27;;
43048;SDS011;28673;44.412;11.918;2023-03-23T06:28:13;25.52;;;17.20;;
43048;SDS011;28673;44.412;11.918;2023-03-23T06:30:43;24.48;;;17.27;;
43048;SDS011;28673;44.412;11.918;2023-03-23T06:33:09;36.03;;;18.38;;
43048;SDS011;28673;44.412;11.918;2023-03-23T06:35:56;22.67;;;15.15;;
43048;SDS011;28673;44.412;11.918;2023-03-23T06:38:46;21.98;;;14.98;;
43048;SDS011;28673;44.412;11.918;2023-03-23T06:41:18;36.25;;;16.17;;
43048;SDS011;28673;44.412;11.918;2023-03-23T06:43:45;28.88;;;16.85;;
43048;SDS011;28673;44.412;11.918;2023-03-23T06:46:20;37.17;;;19.35;;
43048;SDS011;28673;44.412;11.918;2023-03-23T06:49:06;29.45;;;17.30;;
43048;SDS011;28673;44.412;11.918;2023-03-23T06:51:46;23.80;;;13.90;;
43048;SDS011;28673;44.412;11.918;2023-03-23T06:54:15;20.90;;;13.75;;
43048;SDS011;28673;44.412;11.918;2023-03-23T06:56:43;17.45;;;12.82;;
43048;SDS011;28673;44.412;11.918;2023-03-23T06:59:09;22.80;;;12.10;;
43048;SDS011;28673;44.412;11.918;2023-03-23T07:13:46;18.83;;;10.90;;
43048;SDS011;28673;44.412;11.918;2023-03-23T07:16:13;14.95;;;11.68;;
43048;SDS011;28673;44.412;11.918;2023-03-23T07:18:40;17.05;;;12.07;;
43048;SDS011;28673;44.412;11.918;2023-03-23T07:21:06;24.25;;;11.07;;
43048;SDS011;28673;44.412;11.918;2023-03-23T07:23:32;14.55;;;11.27;;
43048;SDS011;28673;44.412;11.918;2023-03-23T07:26:08;22.88;;;11.65;;
43048;SDS011;28673;44.412;11.918;2023-03-23T07:28:42;14.45;;;10.48;;
43048;SDS011;28673;44.412;11.918;2023-03-23T07:31:29;15.38;;;10.43;;
43048;SDS011;28673;44.412;11.918;2023-03-23T07:33:55;14.98;;;10.80;;
43048;SDS011;28673;44.412;11.918;2023-03-23T07:36:30;17.70;;;11.90;;
43048;SDS011;28673;44.412;11.918;2023-03-23T07:38:56;23.45;;;12.05;;
43048;SDS011;28673;44.412;11.918;2023-03-23T07:41:24;16.33;;;11.00;;
43048;SDS011;28673;44.412;11.918;2023-03-23T07:43:53;11.77;;;9.32;;
43048;SDS011;28673;44.412;11.918;2023-03-23T07:46:30;16.05;;;10.88;;
43048;SDS011;28673;44.412;11.918;2023-03-23T07:49:14;18.48;;;9.38;;
43048;SDS011;28673;44.412;11.918;2023-03-23T07:51:51;16.70;;;10.05;;
43048;SDS011;28673;44.412;11.918;2023-03-23T07:54:18;16.95;;;9.68;;
43048;SDS011;28673;44.412;11.918;2023-03-23T07:57:03;13.90;;;8.40;;
43048;SDS011;28673;44.412;11.918;2023-03-23T07:59:37;15.60;;;10.27;;
43048;SDS011;28673;44.412;11.918;2023-03-23T08:02:03;12.88;;;9.55;;
43048;SDS011;28673;44.412;11.918;2023-03-23T08:04:38;13.50;;;8.88;;
43048;SDS011;28673;44.412;11.918;2023-03-23T08:07:43;13.57;;;9.38;;
43048;SDS011;28673;44.412;11.918;2023-03-23T08:10:18;11.05;;;8.68;;
43048;SDS011;28673;44.412;11.918;2023-03-23T08:13:10;13.15;;;8.07;;
43048;SDS011;28673;44.412;11.918;2023-03-23T08:16:02;11.75;;;7.90;;
43048;SDS011;28673;44.412;11.918;2023-03-23T08:19:01;14.43;;;8.57;;
43048;SDS011;28673;44.412;11.918;2023-03-23T08:21:27;14.05;;;8.48;;
43048;SDS011;28673;44.412;11.918;2023-03-23T08:24:32;15.75;;;8.48;;
43048;SDS011;28673;44.412;11.918;2023-03-23T08:27:24;18.42;;;8.65;;
43048;SDS011;28673;44.412;11.918;2023-03-23T08:30:07;10.75;;;7.28;;
43048;SDS011;28673;44.412;11.918;2023-03-23T08:32:52;10.15;;;7.32;;
43048;SDS011;28673;44.412;11.918;2023-03-23T08:35:38;10.00;;;7.78;;
43048;SDS011;28673;44.412;11.918;2023-03-23T08:38:23;13.77;;;8.48;;
43048;SDS011;28673;44.412;11.918;2023-03-23T08:41:02;17.95;;;7.78;;
43048;SDS011;28673;44.412;11.918;2023-03-23T08:43:35;13.13;;;7.65;;
43048;SDS011;28673;44.412;11.918;2023-03-23T08:46:22;11.40;;;6.97;;
43048;SDS011;28673;44.412;11.918;2023-03-23T08:49:07;12.65;;;7.75;;
43048;SDS011;28673;44.412;11.918;2023-03-23T08:51:47;8.88;;;6.05;;
43048;SDS011;28673;44.412;11.918;2023-03-23T08:54:48;11.48;;;6.88;;
43048;SDS011;28673;44.412;11.918;2023-03-23T08:57:26;10.18;;;6.57;;
43048;SDS011;28673;44.412;11.918;2023-03-23T09:00:16;13.18;;;7.55;;
43048;SDS011;28673;44.412;11.918;2023-03-23T09:02:59;13.48;;;8.13;;
43048;SDS011;28673;44.412;11.918;2023-03-23T09:05:35;11.95;;;8.63;;
43048;SDS011;28673;44.412;11.918;2023-03-23T09:08:22;10.60;;;8.07;;
43048;SDS011;28673;44.412;11.918;2023-03-23T09:10:48;14.15;;;7.78;;
43048;SDS011;28673;44.412;11.918;2023-03-23T09:13:15;11.85;;;7.30;;
43048;SDS011;28673;44.412;11.918;2023-03-23T09:15:41;9.45;;;6.45;;
43048;SDS011;28673;44.412;11.918;2023-03-23T09:18:07;9.52;;;6.47;;
43048;SDS011;28673;44.412;11.918;2023-03-23T09:20:33;15.25;;;6.95;;
43048;SDS011;28673;44.412;11.918;2023-03-23T09:22:59;10.13;;;7.35;;
43048;SDS011;28673;44.412;11.918;2023-03-23T09:25:26;13.32;;;7.40;;
43048;SDS011;28673;44.412;11.918;2023-03-23T09:27:54;12.13;;;7.15;;
43048;SDS011;28673;44.412;11.918;2023-03-23T09:30:26;12.77;;;7.80;;
43048;SDS011;28673;44.412;11.918;2023-03-23T09:32:54;13.57;;;7.25;;
43048;SDS011;28673;44.412;11.918;2023-03-23T09:35:20;15.50;;;7.28;;
43048;SDS011;28673;44.412;11.918;2023-03-23T09:37:47;14.98;;;9.18;;
43048;SDS011;28673;44.412;11.918;2023-03-23T09:40:16;12.40;;;8.10;;
43048;SDS011;28673;44.412;11.918;2023-03-23T09:42:55;13.73;;;7.93;;
43048;SDS011;28673;44.412;11.918;2023-03-23T09:45:36;16.98;;;7.78;;
43048;SDS011;28673;44.412;11.918;2023-03-23T09:50:52;17.63;;;8.45;;
43048;SDS011;28673;44.412;11.918;2023-03-23T09:53:30;22.92;;;9.02;;
43048;SDS011;28673;44.412;11.918;2023-03-23T09:56:03;15.57;;;7.82;;
43048;SDS011;28673;44.412;11.918;2023-03-23T09:58:39;17.65;;;10.05;;
43048;SDS011;28673;44.412;11.918;2023-03-23T10:01:15;19.95;;;11.30;;
43048;SDS011;28673;44.412;11.918;2023-03-23T10:03:46;20.90;;;10.60;;
43048;SDS011;28673;44.412;11.918;2023-03-23T10:06:14;27.58;;;13.45;;
43048;SDS011;28673;44.412;11.918;2023-03-23T10:08:51;30.00;;;14.18;;
43048;SDS011;28673;44.412;11.918;2023-03-23T10:17:19;33.00;;;14.90;;
43048;SDS011;28673;44.412;11.918;2023-03-23T10:19:27;29.02;;;12.35;;
43048;SDS011;28673;44.412;11.918;2023-03-23T10:22:02;23.98;;;13.30;;
43048;SDS011;28673;44.412;11.918;2023-03-23T10:30:41;23.65;;;12.90;;
43048;SDS011;28673;44.412;11.918;2023-03-23T10:35:35;28.15;;;13.98;;
43048;SDS011;28673;44.412;11.918;2023-03-23T10:38:13;27.00;;;14.15;;
43048;SDS011;28673;44.412;11.918;2023-03-23T10:40:47;29.38;;;13.00;;
43048;SDS011;28673;44.412;11.918;2023-03-23T10:43:25;30.75;;;14.18;;
43048;SDS011;28673;44.412;11.918;2023-03-23T10:45:55;32.47;;;14.63;;
43048;SDS011;28673;44.412;11.918;2023-03-23T10:48:30;29.80;;;13.40;;
43048;SDS011;28673;44.412;11.918;2023-03-23T10:51:03;31.23;;;13.90;;
43048;SDS011;28673;44.412;11.918;2023-03-23T10:53:38;26.33;;;12.93;;
43048;SDS011;28673;44.412;11.918;2023-03-23T10:58:52;25.48;;;13.60;;
43048;SDS011;28673;44.412;11.918;2023-03-23T11:01:27;26.52;;;13.32;;
43048;SDS011;28673;44.412;11.918;2023-03-23T11:04:00;23.97;;;12.30;;
43048;SDS011;28673;44.412;11.918;2023-03-23T11:06:27;24.02;;;11.38;;
43048;SDS011;28673;44.412;11.918;2023-03-23T11:09:01;25.20;;;11.75;;
43048;SDS011;28673;44.412;11.918;2023-03-23T11:11:39;19.40;;;10.13;;
43048;SDS011;28673;44.412;11.918;2023-03-23T11:14:25;20.40;;;8.88;;
43048;SDS011;28673;44.412;11.918;2023-03-23T11:17:03;18.50;;;9.02;;
43048;SDS011;28673;44.412;11.918;2023-03-23T11:19:32;22.73;;;10.07;;
43048;SDS011;28673;44.412;11.918;2023-03-23T11:24:33;25.50;;;9.82;;
43048;SDS011;28673;44.412;11.918;2023-03-23T11:27:08;24.85;;;10.88;;
43048;SDS011;28673;44.412;11.918;2023-03-23T11:29:37;18.88;;;9.45;;
43048;SDS011;28673;44.412;11.918;2023-03-23T11:32:17;23.08;;;9.65;;
43048;SDS011;28673;44.412;11.918;2023-03-23T11:34:44;20.98;;;8.63;;
43048;SDS011;28673;44.412;11.918;2023-03-23T11:39:59;23.77;;;10.68;;
43048;SDS011;28673;44.412;11.918;2023-03-23T11:47:49;19.67;;;9.65;;
43048;SDS011;28673;44.412;11.918;2023-03-23T11:50:26;20.35;;;10.20;;
43048;SDS011;28673;44.412;11.918;2023-03-23T11:53:08;20.30;;;10.07;;
43048;SDS011;28673;44.412;11.918;2023-03-23T11:58:12;19.23;;;8.68;;
43048;SDS011;28673;44.412;11.918;2023-03-23T12:00:43;16.08;;;8.25;;
43048;SDS011;28673;44.412;11.918;2023-03-23T12:06:06;19.73;;;8.63;;
43048;SDS011;28673;44.412;11.918;2023-03-23T12:14:10;13.35;;;7.30;;
43048;SDS011;28673;44.412;11.918;2023-03-23T12:19:41;19.83;;;8.55;;
43048;SDS011;28673;44.412;11.918;2023-03-23T12:27:39;19.95;;;9.38;;
43048;SDS011;28673;44.412;11.918;2023-03-23T12:33:03;16.83;;;5.60;;
43048;SDS011;28673;44.412;11.918;2023-03-23T12:38:16;14.45;;;6.88;;
43048;SDS011;28673;44.412;11.918;2023-03-23T12:44:05;12.70;;;7.85;;
43048;SDS011;28673;44.412;11.918;2023-03-23T12:49:45;13.40;;;6.53;;
43048;SDS011;28673;44.412;11.918;2023-03-23T12:55:16;15.75;;;7.57;;
43048;SDS011;28673;44.412;11.918;2023-03-23T12:57:44;15.25;;;7.13;;
43048;SDS011;28673;44.412;11.918;2023-03-23T13:11:45;16.00;;;7.30;;
43048;SDS011;28673;44.412;11.918;2023-03-23T13:14:29;19.77;;;8.00;;
43048;SDS011;28673;44.412;11.918;2023-03-23T13:17:14;17.23;;;7.75;;
43048;SDS011;28673;44.412;11.918;2023-03-23T13:19:58;17.40;;;7.32;;
43048;SDS011;28673;44.412;11.918;2023-03-23T13:22:46;18.05;;;7.53;;
43048;SDS011;28673;44.412;11.918;2023-03-23T13:25:50;18.55;;;8.45;;
43048;SDS011;28673;44.412;11.918;2023-03-23T13:28:18;20.67;;;7.70;;
43048;SDS011;28673;44.412;11.918;2023-03-23T13:30:59;15.93;;;7.75;;
43048;SDS011;28673;44.412;11.918;2023-03-23T13:33:37;19.98;;;8.98;;
43048;SDS011;28673;44.412;11.918;2023-03-23T13:36:12;24.58;;;8.77;;
43048;SDS011;28673;44.412;11.918;2023-03-23T13:38:49;17.30;;;7.65;;
43048;SDS011;28673;44.412;11.918;2023-03-23T13:41:17;20.13;;;8.75;;
43048;SDS011;28673;44.412;11.918;2023-03-23T13:43:46;14.77;;;7.83;;
43048;SDS011;28673;44.412;11.918;2023-03-23T13:49:04;15.35;;;7.85;;
43048;SDS011;28673;44.412;11.918;2023-03-23T14:01:56;28.00;;;9.93;;
43048;SDS011;28673;44.412;11.918;2023-03-23T14:04:42;19.88;;;9.10;;
43048;SDS011;28673;44.412;11.918;2023-03-23T14:07:15;19.50;;;8.82;;
43048;SDS011;28673;44.412;11.918;2023-03-23T14:09:44;26.38;;;9.85;;
43048;SDS011;28673;44.412;11.918;2023-03-23T14:12:15;22.50;;;9.27;;
43048;SDS011;28673;44.412;11.918;2023-03-23T14:17:17;17.80;;;9.05;;
43048;SDS011;28673;44.412;11.918;2023-03-23T14:20:04;23.25;;;10.75;;
43048;SDS011;28673;44.412;11.918;2023-03-23T14:22:36;23.50;;;9.60;;
43048;SDS011;28673;44.412;11.918;2023-03-23T14:25:14;24.08;;;9.60;;
43048;SDS011;28673;44.412;11.918;2023-03-23T14:27:42;21.70;;;10.38;;
43048;SDS011;28673;44.412;11.918;2023-03-23T14:32:41;24.27;;;9.68;;
43048;SDS011;28673;44.412;11.918;2023-03-23T14:35:22;19.75;;;8.35;;
43048;SDS011;28673;44.412;11.918;2023-03-23T14:37:48;30.20;;;9.77;;
43048;SDS011;28673;44.412;11.918;2023-03-23T14:40:16;23.65;;;10.57;;
43048;SDS011;28673;44.412;11.918;2023-03-23T14:42:43;27.30;;;9.82;;
43048;SDS011;28673;44.412;11.918;2023-03-23T14:45:10;26.23;;;9.77;;
43048;SDS011;28673;44.412;11.918;2023-03-23T14:47:49;24.15;;;9.25;;
43048;SDS011;28673;44.412;11.918;2023-03-23T14:50:26;18.48;;;9.05;;
43048;SDS011;28673;44.412;11.918;2023-03-23T14:52:59;20.88;;;10.13;;
43048;SDS011;28673;44.412;11.918;2023-03-23T14:55:30;20.58;;;10.32;;
43048;SDS011;28673;44.412;11.918;2023-03-23T14:58:05;24.80;;;10.52;;
43048;SDS011;28673;44.412;11.918;2023-03-23T15:00:35;26.58;;;10.10;;
43048;SDS011;28673;44.412;11.918;2023-03-23T15:03:15;26.38;;;9.88;;
43048;SDS011;28673;44.412;11.918;2023-03-23T15:05:43;29.92;;;11.35;;
43048;SDS011;28673;44.412;11.918;2023-03-23T15:08:46;26.17;;;11.88;;
43048;SDS011;28673;44.412;11.918;2023-03-23T15:13:46;28.02;;;13.82;;
43048;SDS011;28673;44.412;11.918;2023-03-23T15:19:11;24.08;;;13.35;;
43048;SDS011;28673;44.412;11.918;2023-03-23T15:21:55;18.85;;;13.50;;
43048;SDS011;28673;44.412;11.918;2023-03-23T15:29:50;25.73;;;14.30;;
43048;SDS011;28673;44.412;11.918;2023-03-23T15:32:22;21.88;;;15.55;;
43048;SDS011;28673;44.412;11.918;2023-03-23T15:34:50;27.67;;;16.52;;
43048;SDS011;28673;44.412;11.918;2023-03-23T15:37:25;28.02;;;16.77;;
43048;SDS011;28673;44.412;11.918;2023-03-23T15:39:53;27.77;;;16.15;;
43048;SDS011;28673;44.412;11.918;2023-03-23T15:42:24;30.48;;;16.42;;
43048;SDS011;28673;44.412;11.918;2023-03-23T15:44:55;22.75;;;15.05;;
43048;SDS011;28673;44.412;11.918;2023-03-23T15:52:53;33.88;;;19.38;;
43048;SDS011;28673;44.412;11.918;2023-03-23T15:55:29;29.67;;;19.00;;
43048;SDS011;28673;44.412;11.918;2023-03-23T15:58:07;25.70;;;16.65;;
43048;SDS011;28673;44.412;11.918;2023-03-23T16:00:35;28.45;;;18.42;;
43048;SDS011;28673;44.412;11.918;2023-03-23T16:03:03;29.80;;;17.77;;
43048;SDS011;28673;44.412;11.918;2023-03-23T16:05:31;31.20;;;18.73;;
43048;SDS011;28673;44.412;11.918;2023-03-23T16:07:58;32.30;;;17.63;;
43048;SDS011;28673;44.412;11.918;2023-03-23T16:10:25;26.10;;;15.75;;
43048;SDS011;28673;44.412;11.918;2023-03-23T16:12:52;31.48;;;17.75;;
43048;SDS011;28673;44.412;11.918;2023-03-23T16:15:18;29.20;;;18.67;;
43048;SDS011;28673;44.412;11.918;2023-03-23T16:17:45;34.55;;;20.30;;
43048;SDS011;28673;44.412;11.918;2023-03-23T16:20:12;28.67;;;18.33;;
43048;SDS011;28673;44.412;11.918;2023-03-23T16:22:40;31.30;;;18.73;;
43048;SDS011;28673;44.412;11.918;2023-03-23T16:25:06;27.52;;;18.27;;
43048;SDS011;28673;44.412;11.918;2023-03-23T16:27:33;26.50;;;19.23;;
43048;SDS011;28673;44.412;11.918;2023-03-23T16:30:00;31.15;;;18.45;;
43048;SDS011;28673;44.412;11.918;2023-03-23T16:32:28;28.92;;;18.63;;
43048;SDS011;28673;44.412;11.918;2023-03-23T16:34:54;27.73;;;17.13;;
43048;SDS011;28673;44.412;11.918;2023-03-23T16:37:20;28.60;;;17.63;;
43048;SDS011;28673;44.412;11.918;2023-03-23T16:39:45;38.22;;;18.92;;
43048;SDS011;28673;44.412;11.918;2023-03-23T16:42:11;31.38;;;17.50;;
43048;SDS011;28673;44.412;11.918;2023-03-23T16:44:37;26.42;;;17.35;;
43048;SDS011;28673;44.412;11.918;2023-03-23T16:47:04;29.50;;;17.52;;
43048;SDS011;28673;44.412;11.918;2023-03-23T16:49:30;30.58;;;16.45;;
43048;SDS011;28673;44.412;11.918;2023-03-23T16:51:55;31.10;;;15.70;;
43048;SDS011;28673;44.412;11.918;2023-03-23T16:54:22;27.27;;;17.52;;
43048;SDS011;28673;44.412;11.918;2023-03-23T16:56:48;30.42;;;18.23;;
43048;SDS011;28673;44.412;11.918;2023-03-23T16:59:14;23.67;;;17.45;;
43048;SDS011;28673;44.412;11.918;2023-03-23T17:01:44;29.83;;;17.13;;
43048;SDS011;28673;44.412;11.918;2023-03-23T17:04:10;30.60;;;18.63;;
43048;SDS011;28673;44.412;11.918;2023-03-23T17:06:36;28.52;;;18.33;;
43048;SDS011;28673;44.412;11.918;2023-03-23T17:09:02;28.42;;;16.17;;
43048;SDS011;28673;44.412;11.918;2023-03-23T17:11:28;36.22;;;18.17;;